sensor_id;sensor_type;location;lat;lon;timestamp;pressure;altitude;pressure_sealevel;temperature;humidity
10348;BME280;5220;43.192;23.284;2023-02-23T00:00:50;96877.22;;;8.47;100.00
10348;BME280;5220;43.192;23.284;2023-02-23T00:03:17;96870.06;;;8.51;100.00
10348;BME280;5220;43.192;23.284;2023-02-23T00:05:45;96883.63;;;8.42;100.00
10348;BME280;5220;43.192;23.284;2023-02-23T00:08:12;96879.31;;;8.55;100.00
10348;BME280;5220;43.192;23.284;2023-02-23T00:10:39;96878.19;;;8.59;100.00
10348;BME280;5220;43.192;23.284;2023-02-23T00:13:05;96878.47;;;8.54;100.00
10348;BME280;5220;43.192;23.284;2023-02-23T00:15:35;96875.47;;;8.60;100.00
10348;BME280;5220;43.192;23.284;2023-02-23T00:18:02;96875.28;;;8.63;100.00
10348;BME280;5220;43.192;23.284;2023-02-23T00:20:28;96875.28;;;8.63;100.00
10348;BME280;5220;43.192;23.284;2023-02-23T00:22:57;96871.13;;;8.61;100.00
10348;BME280;5220;43.192;23.284;2023-02-23T00:25:24;96874.53;;;8.49;100.00
10348;BME280;5220;43.192;23.284;2023-02-23T00:27:51;96878.41;;;8.29;100.00
10348;BME280;5220;43.192;23.284;2023-02-23T00:30:19;96882.00;;;8.27;100.00
10348;BME280;5220;43.192;23.284;2023-02-23T00:32:46;96881.97;;;8.41;100.00
10348;BME280;5220;43.192;23.284;2023-02-23T00:35:13;96881.03;;;8.42;100.00
10348;BME280;5220;43.192;23.284;2023-02-23T00:37:44;96873.59;;;8.37;100.00
10348;BME280;5220;43.192;23.284;2023-02-23T00:40:13;96872.13;;;8.33;100.00
10348;BME280;5220;43.192;23.284;2023-02-23T00:42:42;96871.56;;;8.28;100.00
10348;BME280;5220;43.192;23.284;2023-02-23T00:45:10;96868.88;;;8.30;100.00
10348;BME280;5220;43.192;23.284;2023-02-23T00:47:37;96865.94;;;8.22;100.00
10348;BME280;5220;43.192;23.284;2023-02-23T00:50:05;96872.97;;;8.20;100.00
10348;BME280;5220;43.192;23.284;2023-02-23T00:52:37;96866.13;;;8.19;100.00
10348;BME280;5220;43.192;23.284;2023-02-23T00:55:05;96853.75;;;8.09;100.00
10348;BME280;5220;43.192;23.284;2023-02-23T00:57:34;96862.06;;;8.15;100.00
10348;BME280;5220;43.192;23.284;2023-02-23T01:00:01;96865.59;;;8.13;100.00
10348;BME280;5220;43.192;23.284;2023-02-23T01:02:37;96862.72;;;8.18;100.00
10348;BME280;5220;43.192;23.284;2023-02-23T01:05:04;96858.38;;;8.19;100.00
10348;BME280;5220;43.192;23.284;2023-02-23T01:07:31;96860.00;;;8.20;100.00
10348;BME280;5220;43.192;23.284;2023-02-23T01:09:58;96861.69;;;8.21;100.00
10348;BME280;5220;43.192;23.284;2023-02-23T01:12:24;96864.56;;;8.16;100.00
10348;BME280;5220;43.192;23.284;2023-02-23T01:14:53;96865.19;;;8.20;100.00
10348;BME280;5220;43.192;23.284;2023-02-23T01:17:19;96868.63;;;8.20;100.00
10348;BME280;5220;43.192;23.284;2023-02-23T01:19:46;96867.69;;;8.21;100.00
10348;BME280;5220;43.192;23.284;2023-02-23T01:22:13;96871.31;;;8.19;100.00
10348;BME280;5220;43.192;23.284;2023-02-23T01:24:39;96874.13;;;8.16;100.00
10348;BME280;5220;43.192;23.284;2023-02-23T01:27:07;96869.22;;;8.11;100.00
10348;BME280;5220;43.192;23.284;2023-02-23T01:29:34;96869.28;;;8.09;100.00
10348;BME280;5220;43.192;23.284;2023-02-23T01:32:02;96864.94;;;8.10;100.00
10348;BME280;5220;43.192;23.284;2023-02-23T01:34:29;96868.69;;;8.06;100.00
10348;BME280;5220;43.192;23.284;2023-02-23T01:36:57;96863.41;;;8.07;100.00
10348;BME280;5220;43.192;23.284;2023-02-23T01:39:23;96867.84;;;8.05;100.00
10348;BME280;5220;43.192;23.284;2023-02-23T01:41:50;96866.09;;;8.06;100.00
10348;BME280;5220;43.192;23.284;2023-02-23T01:47:24;96867.94;;;8.04;100.00
10348;BME280;5220;43.192;23.284;2023-02-23T01:49:51;96867.69;;;7.94;100.00
10348;BME280;5220;43.192;23.284;2023-02-23T01:52:18;96873.63;;;7.96;100.00
10348;BME280;5220;43.192;23.284;2023-02-23T01:54:47;96869.28;;;7.97;100.00
10348;BME280;5220;43.192;23.284;2023-02-23T01:57:17;96866.06;;;7.93;100.00
10348;BME280;5220;43.192;23.284;2023-02-23T01:59:48;96873.19;;;7.90;100.00
10348;BME280;5220;43.192;23.284;2023-02-23T02:02:17;96871.22;;;7.93;100.00
10348;BME280;5220;43.192;23.284;2023-02-23T02:04:45;96873.38;;;7.87;100.00
10348;BME280;5220;43.192;23.284;2023-02-23T02:07:17;96875.59;;;7.79;100.00
10348;BME280;5220;43.192;23.284;2023-02-23T02:09:46;96874.16;;;7.75;100.00
10348;BME280;5220;43.192;23.284;2023-02-23T02:12:44;96877.84;;;7.71;100.00
10348;BME280;5220;43.192;23.284;2023-02-23T02:15:12;96874.63;;;7.67;100.00
10348;BME280;5220;43.192;23.284;2023-02-23T02:17:47;96877.84;;;7.71;100.00
10348;BME280;5220;43.192;23.284;2023-02-23T02:23:53;96881.56;;;7.67;100.00
10348;BME280;5220;43.192;23.284;2023-02-23T02:26:33;96885.28;;;7.63;100.00
10348;BME280;5220;43.192;23.284;2023-02-23T02:29:26;96876.75;;;7.61;100.00
10348;BME280;5220;43.192;23.284;2023-02-23T02:32:37;96881.09;;;7.60;100.00
10348;BME280;5220;43.192;23.284;2023-02-23T02:35:35;96884.28;;;7.51;100.00
10348;BME280;5220;43.192;23.284;2023-02-23T02:38:18;96883.03;;;7.56;100.00
10348;BME280;5220;43.192;23.284;2023-02-23T02:40:52;96886.66;;;7.54;100.00
10348;BME280;5220;43.192;23.284;2023-02-23T02:43:32;96885.03;;;7.53;100.00
10348;BME280;5220;43.192;23.284;2023-02-23T02:46:04;96883.34;;;7.52;100.00
10348;BME280;5220;43.192;23.284;2023-02-23T02:48:36;96878.25;;;7.50;100.00
10348;BME280;5220;43.192;23.284;2023-02-23T02:51:13;96880.22;;;7.47;100.00
10348;BME280;5220;43.192;23.284;2023-02-23T02:53:50;96879.28;;;7.48;100.00
10348;BME280;5220;43.192;23.284;2023-02-23T02:56:22;96883.53;;;7.49;100.00
10348;BME280;5220;43.192;23.284;2023-02-23T02:58:51;96888.91;;;7.46;100.00
10348;BME280;5220;43.192;23.284;2023-02-23T03:01:19;96892.44;;;7.17;100.00
10348;BME280;5220;43.192;23.284;2023-02-23T03:04:18;96894.09;;;7.32;100.00
10348;BME280;5220;43.192;23.284;2023-02-23T03:07:08;96898.44;;;7.17;100.00
10348;BME280;5220;43.192;23.284;2023-02-23T03:09:58;96891.97;;;7.24;100.00
10348;BME280;5220;43.192;23.284;2023-02-23T03:12:54;96894.91;;;7.32;100.00
10348;BME280;5220;43.192;23.284;2023-02-23T03:15:49;96902.88;;;7.29;100.00
10348;BME280;5220;43.192;23.284;2023-02-23T03:18:49;96900.00;;;7.34;100.00
10348;BME280;5220;43.192;23.284;2023-02-23T03:21:44;96907.00;;;7.32;100.00
10348;BME280;5220;43.192;23.284;2023-02-23T03:24:36;96915.25;;;7.24;100.00
10348;BME280;5220;43.192;23.284;2023-02-23T03:27:26;96921.53;;;7.20;100.00
10348;BME280;5220;43.192;23.284;2023-02-23T03:30:19;96925.03;;;7.19;100.00
10348;BME280;5220;43.192;23.284;2023-02-23T03:33:10;96927.19;;;7.13;100.00
10348;BME280;5220;43.192;23.284;2023-02-23T03:36:00;96924.66;;;7.11;100.00
10348;BME280;5220;43.192;23.284;2023-02-23T03:38:49;96931.34;;;7.15;100.00
10348;BME280;5220;43.192;23.284;2023-02-23T03:41:39;96932.53;;;7.10;100.00
10348;BME280;5220;43.192;23.284;2023-02-23T03:44:31;96930.69;;;7.12;100.00
10348;BME280;5220;43.192;23.284;2023-02-23T03:47:19;96931.06;;;7.06;100.00
10348;BME280;5220;43.192;23.284;2023-02-23T03:50:07;96939.81;;;7.03;100.00
10348;BME280;5220;43.192;23.284;2023-02-23T03:52:55;96929.47;;;7.03;100.00
10348;BME280;5220;43.192;23.284;2023-02-23T03:55:43;96937.25;;;7.03;100.00
10348;BME280;5220;43.192;23.284;2023-02-23T03:58:32;96933.34;;;6.96;100.00
10348;BME280;5220;43.192;23.284;2023-02-23T04:01:22;96935.19;;;6.94;100.00
10348;BME280;5220;43.192;23.284;2023-02-23T04:04:08;96942.19;;;6.92;100.00
10348;BME280;5220;43.192;23.284;2023-02-23T04:06:54;96933.34;;;6.96;100.00
10348;BME280;5220;43.192;23.284;2023-02-23T04:09:39;96933.16;;;6.85;100.00
10348;BME280;5220;43.192;23.284;2023-02-23T04:12:29;96947.38;;;6.92;100.00
10348;BME280;5220;43.192;23.284;2023-02-23T04:15:20;96942.38;;;6.89;100.00
10348;BME280;5220;43.192;23.284;2023-02-23T04:17:49;96948.09;;;6.80;100.00
10348;BME280;5220;43.192;23.284;2023-02-23T04:20:19;96951.31;;;6.83;100.00
10348;BME280;5220;43.192;23.284;2023-02-23T04:22:45;96951.41;;;6.82;100.00
10348;BME280;5220;43.192;23.284;2023-02-23T04:25:13;96950.13;;;6.75;100.00
10348;BME280;5220;43.192;23.284;2023-02-23T04:27:40;96952.13;;;6.70;100.00
10348;BME280;5220;43.192;23.284;2023-02-23T04:30:08;96946.94;;;6.70;100.00
10348;BME280;5220;43.192;23.284;2023-02-23T04:32:36;96953.84;;;6.55;100.00
10348;BME280;5220;43.192;23.284;2023-02-23T04:35:05;96946.38;;;6.65;100.00
10348;BME280;5220;43.192;23.284;2023-02-23T04:37:32;96942.47;;;6.58;100.00
10348;BME280;5220;43.192;23.284;2023-02-23T04:39:59;96946.31;;;6.66;100.00
10348;BME280;5220;43.192;23.284;2023-02-23T04:42:25;96953.22;;;6.66;100.00
10348;BME280;5220;43.192;23.284;2023-02-23T04:44:53;96945.47;;;6.66;100.00
10348;BME280;5220;43.192;23.284;2023-02-23T04:47:19;96944.19;;;6.73;100.00
10348;BME280;5220;43.192;23.284;2023-02-23T04:49:46;96946.22;;;6.68;100.00
10348;BME280;5220;43.192;23.284;2023-02-23T04:52:15;96947.88;;;6.69;100.00
10348;BME280;5220;43.192;23.284;2023-02-23T04:54:41;96946.31;;;6.66;100.00
10348;BME280;5220;43.192;23.284;2023-02-23T04:57:08;96949.53;;;6.70;100.00
10348;BME280;5220;43.192;23.284;2023-02-23T04:59:35;96951.22;;;6.71;100.00
10348;BME280;5220;43.192;23.284;2023-02-23T05:02:02;96952.94;;;6.70;100.00
10348;BME280;5220;43.192;23.284;2023-02-23T05:04:29;96950.66;;;6.66;100.00
10348;BME280;5220;43.192;23.284;2023-02-23T05:06:56;96956.66;;;6.66;100.00
10348;BME280;5220;43.192;23.284;2023-02-23T05:09:24;96960.16;;;6.65;100.00
10348;BME280;5220;43.192;23.284;2023-02-23T05:11:51;96966.41;;;6.61;100.00
10348;BME280;5220;43.192;23.284;2023-02-23T05:14:17;96959.91;;;6.54;100.00
10348;BME280;5220;43.192;23.284;2023-02-23T05:16:44;96962.28;;;6.43;100.00
10348;BME280;5220;43.192;23.284;2023-02-23T05:19:11;96967.03;;;6.51;100.00
10348;BME280;5220;43.192;23.284;2023-02-23T05:21:38;96960.19;;;6.49;100.00
10348;BME280;5220;43.192;23.284;2023-02-23T05:24:06;96968.69;;;6.52;100.00
10348;BME280;5220;43.192;23.284;2023-02-23T05:26:34;96969.44;;;6.54;100.00
10348;BME280;5220;43.192;23.284;2023-02-23T05:29:01;96978.19;;;6.51;100.00
10348;BME280;5220;43.192;23.284;2023-02-23T05:31:28;96973.78;;;6.53;100.00
10348;BME280;5220;43.192;23.284;2023-02-23T05:33:54;96971.25;;;6.52;100.00
10348;BME280;5220;43.192;23.284;2023-02-23T05:36:21;96984.34;;;6.48;100.00
10348;BME280;5220;43.192;23.284;2023-02-23T05:38:48;96988.44;;;6.53;100.00
10348;BME280;5220;43.192;23.284;2023-02-23T05:41:16;96981.59;;;6.52;100.00
10348;BME280;5220;43.192;23.284;2023-02-23T05:43:45;96975.69;;;6.49;100.00
10348;BME280;5220;43.192;23.284;2023-02-23T05:46:15;96988.44;;;6.53;100.00
10348;BME280;5220;43.192;23.284;2023-02-23T05:48:42;96984.78;;;6.57;100.00
10348;BME280;5220;43.192;23.284;2023-02-23T05:51:11;96993.94;;;6.62;100.00
10348;BME280;5220;43.192;23.284;2023-02-23T05:53:38;96996.41;;;6.64;100.00
10348;BME280;5220;43.192;23.284;2023-02-23T05:56:06;97005.09;;;6.63;100.00
10348;BME280;5220;43.192;23.284;2023-02-23T05:58:33;97006.00;;;6.62;100.00
10348;BME280;5220;43.192;23.284;2023-02-23T06:01:02;97006.75;;;6.64;100.00
10348;BME280;5220;43.192;23.284;2023-02-23T06:03:29;97012.56;;;6.67;100.00
10348;BME280;5220;43.192;23.284;2023-02-23T06:05:57;97023.03;;;6.66;100.00
10348;BME280;5220;43.192;23.284;2023-02-23T06:08:24;97020.50;;;6.64;100.00
10348;BME280;5220;43.192;23.284;2023-02-23T06:10:51;97025.50;;;6.67;100.00
10348;BME280;5220;43.192;23.284;2023-02-23T06:13:20;97027.34;;;6.65;100.00
10348;BME280;5220;43.192;23.284;2023-02-23T06:15:47;97034.09;;;6.68;100.00
10348;BME280;5220;43.192;23.284;2023-02-23T06:18:16;97033.00;;;6.72;100.00
10348;BME280;5220;43.192;23.284;2023-02-23T06:20:43;97046.78;;;6.72;100.00
10348;BME280;5220;43.192;23.284;2023-02-23T06:23:11;97051.59;;;6.78;100.00
10348;BME280;5220;43.192;23.284;2023-02-23T06:25:39;97057.09;;;6.88;100.00
10348;BME280;5220;43.192;23.284;2023-02-23T06:28:06;97051.75;;;6.91;100.00
10348;BME280;5220;43.192;23.284;2023-02-23T06:30:33;97052.97;;;6.99;100.00
10348;BME280;5220;43.192;23.284;2023-02-23T06:33:00;97046.53;;;7.07;100.00
10348;BME280;5220;43.192;23.284;2023-02-23T06:35:28;97057.16;;;7.16;100.00
10348;BME280;5220;43.192;23.284;2023-02-23T06:37:56;97055.88;;;7.23;100.00
10348;BME280;5220;43.192;23.284;2023-02-23T06:40:23;97057.94;;;7.32;100.00
10348;BME280;5220;43.192;23.284;2023-02-23T06:42:49;97059.91;;;7.43;100.00
10348;BME280;5220;43.192;23.284;2023-02-23T06:45:16;97054.19;;;7.52;100.00
10348;BME280;5220;43.192;23.284;2023-02-23T06:47:43;97056.88;;;7.65;100.00
10348;BME280;5220;43.192;23.284;2023-02-23T06:50:10;97058.84;;;7.75;100.00
10348;BME280;5220;43.192;23.284;2023-02-23T06:52:39;97059.84;;;7.87;100.00
10348;BME280;5220;43.192;23.284;2023-02-23T06:55:07;97064.47;;;7.96;100.00
10348;BME280;5220;43.192;23.284;2023-02-23T06:57:34;97060.75;;;8.14;100.00
10348;BME280;5220;43.192;23.284;2023-02-23T07:00:01;97062.56;;;8.26;100.00
10348;BME280;5220;43.192;23.284;2023-02-23T07:02:28;97066.47;;;8.19;100.00
10348;BME280;5220;43.192;23.284;2023-02-23T07:04:54;97060.00;;;8.40;100.00
10348;BME280;5220;43.192;23.284;2023-02-23T07:07:23;97053.66;;;8.58;100.00
10348;BME280;5220;43.192;23.284;2023-02-23T07:09:51;97048.56;;;8.57;100.00
10348;BME280;5220;43.192;23.284;2023-02-23T07:12:17;97057.88;;;8.74;100.00
10348;BME280;5220;43.192;23.284;2023-02-23T07:14:45;97053.47;;;8.61;100.00
10348;BME280;5220;43.192;23.284;2023-02-23T07:17:12;97048.66;;;8.82;100.00
10348;BME280;5220;43.192;23.284;2023-02-23T07:19:39;97047.41;;;8.88;100.00
10348;BME280;5220;43.192;23.284;2023-02-23T07:22:05;97047.34;;;8.89;100.00
10348;BME280;5220;43.192;23.284;2023-02-23T07:24:32;97052.59;;;8.88;100.00
10348;BME280;5220;43.192;23.284;2023-02-23T07:27:00;97043.41;;;8.96;100.00
10348;BME280;5220;43.192;23.284;2023-02-23T07:29:27;97045.81;;;8.99;100.00
10348;BME280;5220;43.192;23.284;2023-02-23T07:31:54;97056.03;;;8.88;100.00
10348;BME280;5220;43.192;23.284;2023-02-23T07:34:20;97053.47;;;9.01;100.00
10348;BME280;5220;43.192;23.284;2023-02-23T07:36:47;97058.53;;;8.90;100.00
10348;BME280;5220;43.192;23.284;2023-02-23T07:39:14;97056.00;;;8.76;100.00
10348;BME280;5220;43.192;23.284;2023-02-23T07:41:41;97056.94;;;8.75;100.00
10348;BME280;5220;43.192;23.284;2023-02-23T07:44:09;97049.06;;;8.76;100.00
10348;BME280;5220;43.192;23.284;2023-02-23T07:46:36;97048.16;;;8.90;100.00
10348;BME280;5220;43.192;23.284;2023-02-23T07:49:02;97057.84;;;9.00;100.00
10348;BME280;5220;43.192;23.284;2023-02-23T07:51:29;97054.16;;;9.17;100.00
10348;BME280;5220;43.192;23.284;2023-02-23T07:53:56;97051.56;;;9.30;100.00
10348;BME280;5220;43.192;23.284;2023-02-23T07:56:27;97058.34;;;9.45;100.00
10348;BME280;5220;43.192;23.284;2023-02-23T07:58:54;97055.97;;;9.67;100.00
10348;BME280;5220;43.192;23.284;2023-02-23T08:01:22;97062.84;;;9.68;100.00
10348;BME280;5220;43.192;23.284;2023-02-23T08:03:49;97061.38;;;9.64;100.00
10348;BME280;5220;43.192;23.284;2023-02-23T08:06:16;97058.66;;;9.78;100.00
10348;BME280;5220;43.192;23.284;2023-02-23T08:08:43;97067.63;;;9.87;100.00
10348;BME280;5220;43.192;23.284;2023-02-23T08:11:10;97060.41;;;9.90;100.00
10348;BME280;5220;43.192;23.284;2023-02-23T08:13:37;97056.47;;;9.97;100.00
10348;BME280;5220;43.192;23.284;2023-02-23T08:16:04;97067.47;;;10.01;100.00
10348;BME280;5220;43.192;23.284;2023-02-23T08:18:32;97066.00;;;10.09;100.00
10348;BME280;5220;43.192;23.284;2023-02-23T08:20:59;97066.88;;;10.22;100.00
10348;BME280;5220;43.192;23.284;2023-02-23T08:23:28;97061.03;;;9.94;100.00
10348;BME280;5220;43.192;23.284;2023-02-23T08:25:54;97062.19;;;10.15;100.00
10348;BME280;5220;43.192;23.284;2023-02-23T08:28:21;97066.63;;;10.38;100.00
10348;BME280;5220;43.192;23.284;2023-02-23T08:30:49;97060.28;;;10.42;100.00
10348;BME280;5220;43.192;23.284;2023-02-23T08:33:16;97070.38;;;10.34;100.00
10348;BME280;5220;43.192;23.284;2023-02-23T08:35:44;97063.28;;;10.49;100.00
10348;BME280;5220;43.192;23.284;2023-02-23T08:38:11;97068.72;;;10.69;100.00
10348;BME280;5220;43.192;23.284;2023-02-23T08:40:37;97065.97;;;10.47;100.00
10348;BME280;5220;43.192;23.284;2023-02-23T08:43:04;97060.75;;;10.47;100.00
10348;BME280;5220;43.192;23.284;2023-02-23T08:45:31;97068.28;;;10.75;100.00
10348;BME280;5220;43.192;23.284;2023-02-23T08:47:57;97068.03;;;10.78;100.00
10348;BME280;5220;43.192;23.284;2023-02-23T08:50:24;97065.44;;;11.02;100.00
10348;BME280;5220;43.192;23.284;2023-02-23T08:52:52;97067.28;;;11.24;100.00
10348;BME280;5220;43.192;23.284;2023-02-23T08:55:19;97068.72;;;11.17;100.00
10348;BME280;5220;43.192;23.284;2023-02-23T08:57:48;97074.16;;;11.25;100.00
10348;BME280;5220;43.192;23.284;2023-02-23T09:00:15;97067.63;;;11.08;100.00
10348;BME280;5220;43.192;23.284;2023-02-23T09:02:43;97074.84;;;11.16;100.00
10348;BME280;5220;43.192;23.284;2023-02-23T09:05:11;97075.47;;;11.19;100.00
10348;BME280;5220;43.192;23.284;2023-02-23T09:07:39;97072.81;;;11.43;100.00
10348;BME280;5220;43.192;23.284;2023-02-23T09:10:13;97065.13;;;11.42;100.00
10348;BME280;5220;43.192;23.284;2023-02-23T09:12:40;97076.31;;;11.66;100.00
10348;BME280;5220;43.192;23.284;2023-02-23T09:15:07;97081.63;;;11.64;100.00
10348;BME280;5220;43.192;23.284;2023-02-23T09:17:34;97075.16;;;11.70;100.00
10348;BME280;5220;43.192;23.284;2023-02-23T09:20:02;97084.16;;;11.77;100.00
10348;BME280;5220;43.192;23.284;2023-02-23T09:22:30;97081.78;;;11.74;100.00
10348;BME280;5220;43.192;23.284;2023-02-23T09:24:59;97076.59;;;11.85;100.00
10348;BME280;5220;43.192;23.284;2023-02-23T09:27:27;97076.75;;;11.95;100.00
10348;BME280;5220;43.192;23.284;2023-02-23T09:29:54;97081.13;;;12.16;100.00
10348;BME280;5220;43.192;23.284;2023-02-23T09:32:20;97086.94;;;12.20;100.00
10348;BME280;5220;43.192;23.284;2023-02-23T09:34:47;97081.84;;;12.29;100.00
10348;BME280;5220;43.192;23.284;2023-02-23T09:37:14;97089.78;;;12.50;100.00
10348;BME280;5220;43.192;23.284;2023-02-23T09:39:41;97090.00;;;12.36;100.00
10348;BME280;5220;43.192;23.284;2023-02-23T09:42:16;97082.28;;;12.46;100.00
10348;BME280;5220;43.192;23.284;2023-02-23T09:45:00;97084.31;;;12.31;100.00
10348;BME280;5220;43.192;23.284;2023-02-23T09:47:37;97081.34;;;12.24;100.00
10348;BME280;5220;43.192;23.284;2023-02-23T09:50:15;97084.78;;;12.47;100.00
10348;BME280;5220;43.192;23.284;2023-02-23T09:52:48;97078.25;;;12.53;100.00
10348;BME280;5220;43.192;23.284;2023-02-23T09:55:16;97084.41;;;12.63;100.00
10348;BME280;5220;43.192;23.284;2023-02-23T09:57:46;97085.22;;;12.85;100.00
10348;BME280;5220;43.192;23.284;2023-02-23T10:00:20;97082.78;;;12.93;100.00
10348;BME280;5220;43.192;23.284;2023-02-23T10:05:47;97081.59;;;13.09;100.00
10348;BME280;5220;43.192;23.284;2023-02-23T10:08:27;97084.88;;;12.79;100.00
10348;BME280;5220;43.192;23.284;2023-02-23T10:11:03;97090.91;;;12.79;100.00
10348;BME280;5220;43.192;23.284;2023-02-23T10:13:39;97083.47;;;13.07;100.00
10348;BME280;5220;43.192;23.284;2023-02-23T10:16:16;97083.03;;;13.33;99.95
10348;BME280;5220;43.192;23.284;2023-02-23T10:18:50;97087.72;;;13.51;94.51
10348;BME280;5220;43.192;23.284;2023-02-23T10:21:26;97084.28;;;13.50;94.18
10348;BME280;5220;43.192;23.284;2023-02-23T10:23:58;97088.75;;;13.59;93.86
10348;BME280;5220;43.192;23.284;2023-02-23T10:26:33;97079.94;;;13.60;93.29
10348;BME280;5220;43.192;23.284;2023-02-23T10:29:18;97075.34;;;13.73;91.83
10348;BME280;5220;43.192;23.284;2023-02-23T10:31:48;97075.41;;;13.41;95.93
10348;BME280;5220;43.192;23.284;2023-02-23T10:34:17;97073.13;;;13.48;95.61
10348;BME280;5220;43.192;23.284;2023-02-23T10:36:48;97075.59;;;13.70;94.43
10348;BME280;5220;43.192;23.284;2023-02-23T10:39:17;97076.63;;;13.26;96.14
10348;BME280;5220;43.192;23.284;2023-02-23T10:41:44;97073.41;;;13.34;94.95
10348;BME280;5220;43.192;23.284;2023-02-23T10:44:17;97059.16;;;13.59;96.61
10348;BME280;5220;43.192;23.284;2023-02-23T10:46:49;97072.66;;;13.43;94.62
10348;BME280;5220;43.192;23.284;2023-02-23T10:49:19;97068.00;;;13.46;96.83
10348;BME280;5220;43.192;23.284;2023-02-23T10:51:47;97067.44;;;13.43;93.87
10348;BME280;5220;43.192;23.284;2023-02-23T10:54:37;97059.91;;;13.50;97.20
10348;BME280;5220;43.192;23.284;2023-02-23T10:57:07;97068.59;;;13.29;95.92
10348;BME280;5220;43.192;23.284;2023-02-23T11:00:04;97064.50;;;13.36;97.71
10348;BME280;5220;43.192;23.284;2023-02-23T11:02:33;97066.94;;;13.17;99.47
10348;BME280;5220;43.192;23.284;2023-02-23T11:05:05;97063.63;;;13.47;94.30
10348;BME280;5220;43.192;23.284;2023-02-23T11:07:33;97065.50;;;13.45;93.79
10348;BME280;5220;43.192;23.284;2023-02-23T11:10:23;97061.94;;;13.46;96.28
10348;BME280;5220;43.192;23.284;2023-02-23T11:12:51;97059.66;;;13.53;92.89
10348;BME280;5220;43.192;23.284;2023-02-23T11:15:26;97061.50;;;13.41;97.78
10348;BME280;5220;43.192;23.284;2023-02-23T11:17:56;97065.38;;;13.67;95.74
10348;BME280;5220;43.192;23.284;2023-02-23T11:20:28;97055.13;;;13.75;91.64
10348;BME280;5220;43.192;23.284;2023-02-23T11:22:56;97053.25;;;13.87;90.16
10348;BME280;5220;43.192;23.284;2023-02-23T11:25:26;97060.63;;;13.72;91.33
10348;BME280;5220;43.192;23.284;2023-02-23T11:27:53;97065.56;;;13.96;89.17
10348;BME280;5220;43.192;23.284;2023-02-23T11:30:23;97068.00;;;13.67;88.80
10348;BME280;5220;43.192;23.284;2023-02-23T11:32:57;97073.31;;;13.35;92.44
10348;BME280;5220;43.192;23.284;2023-02-23T11:35:30;97069.31;;;13.20;94.43
10348;BME280;5220;43.192;23.284;2023-02-23T11:37:56;97071.34;;;13.06;95.24
10348;BME280;5220;43.192;23.284;2023-02-23T11:40:26;97071.03;;;13.10;96.24
10348;BME280;5220;43.192;23.284;2023-02-23T11:42:55;97073.28;;;13.04;94.14
10348;BME280;5220;43.192;23.284;2023-02-23T11:45:24;97071.59;;;13.03;95.63
10348;BME280;5220;43.192;23.284;2023-02-23T11:47:54;97072.81;;;12.99;99.16
10348;BME280;5220;43.192;23.284;2023-02-23T11:50:26;97073.66;;;13.10;96.97
10348;BME280;5220;43.192;23.284;2023-02-23T11:53:01;97070.63;;;13.26;93.78
10348;BME280;5220;43.192;23.284;2023-02-23T11:55:30;97070.72;;;13.45;92.25
10348;BME280;5220;43.192;23.284;2023-02-23T11:58:21;97071.50;;;13.36;90.33
10348;BME280;5220;43.192;23.284;2023-02-23T12:00:56;97079.59;;;13.33;91.74
10348;BME280;5220;43.192;23.284;2023-02-23T12:03:25;97074.78;;;13.70;86.95
10348;BME280;5220;43.192;23.284;2023-02-23T12:05:55;97071.97;;;13.62;89.26
10348;BME280;5220;43.192;23.284;2023-02-23T12:08:32;97053.66;;;13.62;87.00
10348;BME280;5220;43.192;23.284;2023-02-23T12:11:03;97068.41;;;13.63;87.96
10348;BME280;5220;43.192;23.284;2023-02-23T12:13:35;97059.78;;;13.72;86.22
10348;BME280;5220;43.192;23.284;2023-02-23T12:16:07;97064.03;;;13.93;82.54
10348;BME280;5220;43.192;23.284;2023-02-23T12:18:43;97063.53;;;13.99;83.60
10348;BME280;5220;43.192;23.284;2023-02-23T12:21:22;97068.16;;;14.26;83.24
10348;BME280;5220;43.192;23.284;2023-02-23T12:23:54;97064.81;;;14.15;79.83
10348;BME280;5220;43.192;23.284;2023-02-23T12:26:23;97062.63;;;14.10;79.65
10348;BME280;5220;43.192;23.284;2023-02-23T12:28:54;97065.69;;;14.25;79.06
10348;BME280;5220;43.192;23.284;2023-02-23T12:31:27;97062.94;;;13.96;82.66
10348;BME280;5220;43.192;23.284;2023-02-23T12:34:01;97056.72;;;13.87;85.40
10348;BME280;5220;43.192;23.284;2023-02-23T12:36:36;97063.88;;;13.85;83.39
10348;BME280;5220;43.192;23.284;2023-02-23T12:39:10;97061.13;;;13.87;83.51
10348;BME280;5220;43.192;23.284;2023-02-23T12:41:44;97063.53;;;13.58;88.85
10348;BME280;5220;43.192;23.284;2023-02-23T12:44:20;97063.50;;;13.69;89.19
10348;BME280;5220;43.192;23.284;2023-02-23T12:46:56;97065.44;;;13.77;83.42
10348;BME280;5220;43.192;23.284;2023-02-23T12:49:34;97075.78;;;13.78;84.70
10348;BME280;5220;43.192;23.284;2023-02-23T12:52:08;97059.81;;;13.51;85.68
10348;BME280;5220;43.192;23.284;2023-02-23T12:54:39;97059.66;;;13.94;82.96
10348;BME280;5220;43.192;23.284;2023-02-23T12:57:13;97070.34;;;13.70;83.15
10348;BME280;5220;43.192;23.284;2023-02-23T13:00:05;97071.72;;;13.65;82.98
10348;BME280;5220;43.192;23.284;2023-02-23T13:02:52;97070.38;;;13.50;87.23
10348;BME280;5220;43.192;23.284;2023-02-23T13:05:24;97073.34;;;13.24;87.68
10348;BME280;5220;43.192;23.284;2023-02-23T13:08:10;97079.22;;;13.58;86.79
10348;BME280;5220;43.192;23.284;2023-02-23T13:10:50;97070.06;;;13.84;86.13
10348;BME280;5220;43.192;23.284;2023-02-23T13:13:30;97083.31;;;13.72;85.34
10348;BME280;5220;43.192;23.284;2023-02-23T13:16:06;97076.94;;;13.65;84.17
10348;BME280;5220;43.192;23.284;2023-02-23T13:18:40;97085.94;;;13.72;83.45
10348;BME280;5220;43.192;23.284;2023-02-23T13:21:15;97086.00;;;13.81;85.69
10348;BME280;5220;43.192;23.284;2023-02-23T13:23:54;97083.03;;;13.95;83.15
10348;BME280;5220;43.192;23.284;2023-02-23T13:26:29;97080.41;;;13.95;81.42
10348;BME280;5220;43.192;23.284;2023-02-23T13:29:02;97086.31;;;13.88;83.90
10348;BME280;5220;43.192;23.284;2023-02-23T13:31:33;97087.78;;;13.60;83.97